Time;durP1;ratioP1;P1;durP2;ratioP2;P2;SDS_P1;SDS_P2;PMS_P1;PMS_P2;Temp;Humidity;BMP_temperature;BMP_pressure;BME280_temperature;BME280_humidity;BME280_pressure;Samples;Min_cycle;Max_cycle;Signal;HPM_P1;HPM_P2
2021/11/04 00:00:23;;;;;;;2.05;1.30;;;;;;;4.65;100.00;94277.22;5050899;28;24454;-75
2021/11/04 00:02:50;;;;;;;1.20;1.10;;;;;;;5.03;100.00;94287.56;5050971;28;24434;-75
2021/11/04 00:05:17;;;;;;;4.40;1.35;;;;;;;5.09;100.00;94294.06;5050448;28;24982;-75
2021/11/04 00:07:45;;;;;;;2.50;1.40;;;;;;;4.77;100.00;94296.94;5050549;28;24512;-75
2021/11/04 00:10:12;;;;;;;2.55;1.55;;;;;;;4.64;100.00;94292.72;5050866;28;24781;-75
2021/11/04 00:12:40;;;;;;;1.47;1.37;;;;;;;4.60;100.00;94295.47;5050757;28;24796;-74
2021/11/04 00:15:07;;;;;;;2.30;1.73;;;;;;;4.61;100.00;94302.22;5050323;28;24796;-74
2021/11/04 00:17:34;;;;;;;2.05;1.83;;;;;;;4.57;100.00;94298.22;5050587;28;24446;-75
2021/11/04 00:20:00;;;;;;;2.63;2.20;;;;;;;4.63;100.00;94299.56;5050455;28;24454;-75
2021/11/04 00:22:27;;;;;;;4.00;3.28;;;;;;;4.69;100.00;94299.19;5050292;28;24963;-75
2021/11/04 00:24:53;;;;;;;6.10;4.20;;;;;;;4.61;100.00;94294.53;5050289;28;24431;-75
2021/11/04 00:27:20;;;;;;;9.40;5.57;;;;;;;4.68;100.00;94283.91;5050379;28;24995;-75
2021/11/04 00:29:48;;;;;;;6.75;5.38;;;;;;;4.64;100.00;94272.19;5050535;28;24731;-75
2021/11/04 00:32:15;;;;;;;8.10;6.07;;;;;;;4.50;100.00;94267.94;5050265;28;24422;-75
2021/11/04 00:34:41;;;;;;;6.40;5.78;;;;;;;4.47;100.00;94252.75;5049547;28;24422;-75
2021/11/04 00:37:08;;;;;;;6.47;5.27;;;;;;;4.47;100.00;94245.88;5050342;28;24955;-75
2021/11/04 00:39:34;;;;;;;4.67;3.93;;;;;;;4.47;100.00;94243.31;5050283;28;24447;-75
2021/11/04 00:42:01;;;;;;;5.43;4.70;;;;;;;4.46;100.00;94233.97;5050392;28;24420;-76
2021/11/04 00:44:27;;;;;;;5.22;4.35;;;;;;;4.55;100.00;94247.94;5049853;28;24421;-74
2021/11/04 00:46:55;;;;;;;5.10;3.55;;;;;;;4.61;100.00;94266.34;5049928;28;24432;-75
2021/11/04 00:49:21;;;;;;;4.68;3.85;;;;;;;4.65;100.00;94261.84;5049934;28;24430;-75
2021/11/04 00:51:48;;;;;;;4.28;3.78;;;;;;;4.72;100.00;94273.34;5050154;28;24429;-75
2021/11/04 00:54:15;;;;;;;5.15;3.65;;;;;;;4.76;100.00;94279.09;5050299;28;24422;-75
2021/11/04 00:56:41;;;;;;;4.43;3.40;;;;;;;4.71;100.00;94291.38;5049814;28;24419;-76
2021/11/04 00:59:08;;;;;;;4.23;3.33;;;;;;;4.65;100.00;94299.47;5050122;28;24423;-75
2021/11/04 01:01:34;;;;;;;4.30;3.30;;;;;;;4.68;100.00;94294.97;5047905;28;24454;-76
2021/11/04 01:04:02;;;;;;;4.33;3.27;;;;;;;4.64;100.00;94301.22;5048946;28;24467;-76
2021/11/04 01:06:28;;;;;;;3.00;2.70;;;;;;;4.63;100.00;94314.13;5048452;28;24435;-75
2021/11/04 01:08:55;;;;;;;4.55;2.60;;;;;;;4.48;100.00;94311.59;5049411;28;24434;-75
2021/11/04 01:11:23;;;;;;;2.92;2.50;;;;;;;4.35;100.00;94305.59;5049295;28;24422;-75
2021/11/04 01:13:50;;;;;;;3.10;2.80;;;;;;;4.15;100.00;94303.41;5049206;28;24439;-75
2021/11/04 01:16:17;;;;;;;4.30;3.20;;;;;;;3.99;100.00;94309.47;5048318;28;24426;-75
2021/11/04 01:18:43;;;;;;;3.23;2.00;;;;;;;3.98;100.00;94305.28;5049317;28;24426;-75
2021/11/04 01:21:12;;;;;;;2.50;2.25;;;;;;;3.95;100.00;94302.91;5047955;28;24458;-75
2021/11/04 01:23:39;;;;;;;1.40;1.20;;;;;;;3.94;100.00;94305.56;5049945;28;24435;-76
2021/11/04 01:26:06;;;;;;;1.90;1.38;;;;;;;3.90;100.00;94299.00;5049648;28;24419;-75
2021/11/04 01:28:32;;;;;;;1.48;1.00;;;;;;;3.95;100.00;94297.78;5049929;28;24434;-76
2021/11/04 01:30:59;;;;;;;2.78;1.17;;;;;;;3.95;100.00;94297.78;5049632;28;24431;-74
2021/11/04 01:33:25;;;;;;;1.58;1.42;;;;;;;4.04;100.00;94289.56;5049020;28;24442;-74
2021/11/04 01:35:52;;;;;;;1.83;1.15;;;;;;;3.99;100.00;94296.69;5049444;28;24438;-75
2021/11/04 01:38:19;;;;;;;1.70;0.82;;;;;;;3.93;100.00;94293.66;5049677;28;24446;-76
2021/11/04 01:40:46;;;;;;;0.77;0.40;;;;;;;3.86;100.00;94298.34;5049703;28;24439;-76
2021/11/04 01:43:13;;;;;;;0.50;0.45;;;;;;;3.81;100.00;94296.03;5049804;28;24430;-75
2021/11/04 01:45:40;;;;;;;1.05;0.50;;;;;;;3.79;100.00;94292.75;5049368;28;24422;-75
2021/11/04 01:48:06;;;;;;;1.95;0.40;;;;;;;3.77;100.00;94289.47;5046341;23;24482;-74
2021/11/04 01:50:34;;;;;;;0.30;0.20;;;;;;;3.78;100.00;94285.16;5030257;28;24980;-74
2021/11/04 01:53:01;;;;;;;0.47;0.20;;;;;;;3.85;100.00;94289.00;5033380;28;24423;-74
2021/11/04 01:55:29;;;;;;;0.70;0.30;;;;;;;3.93;100.00;94283.41;5032934;28;24428;-74
2021/11/04 01:57:57;;;;;;;0.28;0.17;;;;;;;3.84;100.00;94280.50;5033055;28;24428;-74
2021/11/04 02:00:28;;;;;;;0.70;0.15;;;;;;;3.96;100.00;94286.59;5032954;28;24451;-74
2021/11/04 02:03:03;;;;;;;0.30;0.30;;;;;;;4.02;100.00;94275.19;5033298;28;24869;-74
2021/11/04 02:05:39;;;;;;;0.35;0.30;;;;;;;3.97;100.00;94272.91;5032768;28;25210;-74
2021/11/04 02:08:09;;;;;;;0.30;0.30;;;;;;;4.13;100.00;94272.78;5032966;28;24430;-74
2021/11/04 02:10:43;;;;;;;0.35;0.28;;;;;;;4.26;100.00;94277.97;5032771;28;24418;-74
2021/11/04 02:13:15;;;;;;;0.90;0.40;;;;;;;4.15;100.00;94286.31;5031807;28;24428;-74
2021/11/04 02:15:43;;;;;;;1.52;0.40;;;;;;;4.28;100.00;94288.94;5024122;28;24439;-74
2021/11/04 02:18:12;;;;;;;0.30;0.30;;;;;;;4.35;100.00;94300.47;5029162;28;24437;-74
2021/11/04 02:20:55;;;;;;;0.40;0.22;;;;;;;4.45;100.00;94308.41;5022252;28;24460;-74
2021/11/04 02:23:29;;;;;;;0.40;0.23;;;;;;;4.44;100.00;94302.44;5026356;28;24522;-74
2021/11/04 02:25:58;;;;;;;0.50;0.20;;;;;;;4.40;100.00;94313.00;5016548;28;24989;-74
2021/11/04 02:28:26;;;;;;;0.32;0.10;;;;;;;4.43;100.00;94307.69;5031415;28;24419;-74
2021/11/04 02:30:53;;;;;;;0.28;0.25;;;;;;;4.40;100.00;94313.81;5023876;28;24976;-74
2021/11/04 02:33:22;;;;;;;0.13;0.13;;;;;;;4.42;100.00;94327.38;5032437;28;24422;-74
2021/11/04 02:35:51;;;;;;;0.38;0.17;;;;;;;4.48;100.00;94329.53;5023492;28;24845;-74
2021/11/04 02:38:19;;;;;;;0.15;0.10;;;;;;;4.46;100.00;94328.00;5027546;28;24486;-74
2021/11/04 02:40:46;;;;;;;0.30;0.20;;;;;;;4.46;100.00;94331.38;5032436;28;24442;-74
2021/11/04 02:43:16;;;;;;;0.30;0.10;;;;;;;4.40;100.00;94334.31;5032494;28;24423;-74
2021/11/04 02:45:43;;;;;;;0.45;0.30;;;;;;;4.25;100.00;94330.97;5032220;28;24498;-74
2021/11/04 02:48:11;;;;;;;0.30;0.22;;;;;;;4.17;100.00;94333.16;5031948;28;24420;-74
2021/11/04 02:50:38;;;;;;;1.00;0.20;;;;;;;4.12;100.00;94327.50;5032155;28;24411;-74
2021/11/04 02:53:05;;;;;;;0.35;0.30;;;;;;;4.03;100.00;94341.69;5032093;28;24424;-74
2021/11/04 02:55:33;;;;;;;0.20;0.20;;;;;;;3.86;100.00;94334.19;5026657;28;24451;-74
2021/11/04 02:58:05;;;;;;;0.15;0.15;;;;;;;3.94;100.00;94329.44;5023281;28;24463;-74
2021/11/04 03:00:36;;;;;;;0.70;0.20;;;;;;;4.04;100.00;94330.53;5031831;28;24968;-74
2021/11/04 03:03:02;;;;;;;1.00;0.25;;;;;;;4.09;100.00;94336.19;5032152;28;24424;-74
2021/11/04 03:05:29;;;;;;;0.52;0.30;;;;;;;4.17;100.00;94332.34;5031613;28;24945;-74
2021/11/04 03:07:56;;;;;;;1.38;0.47;;;;;;;4.12;100.00;94328.34;5031851;28;24789;-74
2021/11/04 03:10:23;;;;;;;0.40;0.40;;;;;;;4.17;100.00;94332.34;5031832;28;24420;-74
2021/11/04 03:12:49;;;;;;;0.55;0.30;;;;;;;4.11;100.00;94342.03;5031765;28;24447;-74
2021/11/04 03:15:18;;;;;;;0.38;0.30;;;;;;;4.14;100.00;94343.59;5031181;28;24431;-74
2021/11/04 03:17:48;;;;;;;0.30;0.22;;;;;;;4.20;100.00;94348.38;5031559;28;25004;-74
2021/11/04 03:20:16;;;;;;;0.20;0.20;;;;;;;4.23;100.00;94339.69;5031659;28;24505;-74
2021/11/04 03:22:45;;;;;;;0.80;0.40;;;;;;;4.22;100.00;94341.38;5031616;28;24866;-76
2021/11/04 03:25:14;;;;;;;1.05;0.52;;;;;;;4.11;100.00;94334.34;5031350;28;24979;-76
2021/11/04 03:27:42;;;;;;;0.40;0.30;;;;;;;4.01;100.00;94332.47;5031260;28;24470;-74
2021/11/04 03:30:11;;;;;;;0.25;0.25;;;;;;;4.09;100.00;94341.31;5031628;28;24435;-74
2021/11/04 03:32:39;;;;;;;0.40;0.30;;;;;;;4.10;100.00;94342.97;5027501;28;24435;-74
2021/11/04 03:35:08;;;;;;;0.40;0.40;;;;;;;4.00;100.00;94336.75;5024395;28;24428;-74
2021/11/04 03:37:37;;;;;;;0.88;0.38;;;;;;;3.90;100.00;94335.66;5031289;28;24431;-74
2021/11/04 03:40:05;;;;;;;0.40;0.40;;;;;;;3.84;100.00;94336.00;5031209;28;24423;-74
2021/11/04 03:42:32;;;;;;;0.70;0.57;;;;;;;3.69;100.00;94348.00;5031485;28;24424;-76
2021/11/04 03:44:59;;;;;;;0.90;0.50;;;;;;;3.61;100.00;94333.06;5031090;28;24420;-76
2021/11/04 03:47:30;;;;;;;0.60;0.60;;;;;;;3.71;100.00;94324.84;5031071;28;24797;-74
2021/11/04 03:49:57;;;;;;;1.65;0.80;;;;;;;3.72;100.00;94334.19;5031036;28;24451;-74
2021/11/04 03:52:27;;;;;;;1.00;0.90;;;;;;;3.75;100.00;94329.72;5031028;28;24412;-74
2021/11/04 03:54:54;;;;;;;1.60;0.82;;;;;;;3.84;100.00;94323.22;5030533;28;24543;-74
2021/11/04 03:57:24;;;;;;;2.70;0.68;;;;;;;3.88;100.00;94322.94;5031060;28;24432;-74
2021/11/04 03:59:51;;;;;;;2.83;0.80;;;;;;;3.93;100.00;94324.38;5030936;28;24431;-74
2021/11/04 04:02:18;;;;;;;1.52;1.00;;;;;;;3.98;100.00;94319.84;5030930;28;24440;-74
2021/11/04 04:04:51;;;;;;;1.90;0.80;;;;;;;3.98;100.00;94315.53;5030560;28;24427;-74
2021/11/04 04:07:18;;;;;;;1.10;0.90;;;;;;;4.06;100.00;94325.31;5030706;28;24427;-74
2021/11/04 04:09:46;;;;;;;0.65;0.65;;;;;;;4.10;100.00;94321.66;5030295;28;24423;-74
2021/11/04 04:12:13;;;;;;;0.85;0.60;;;;;;;4.17;100.00;94319.53;5030954;28;24514;-74
2021/11/04 04:14:39;;;;;;;0.90;0.63;;;;;;;4.17;100.00;94319.53;5030396;28;24443;-74
2021/11/04 04:17:06;;;;;;;0.80;0.55;;;;;;;4.09;100.00;94333.63;5030633;28;24432;-74
2021/11/04 04:19:32;;;;;;;1.00;0.45;;;;;;;4.02;100.00;94342.59;5030660;28;24423;-74
2021/11/04 04:21:59;;;;;;;1.75;0.68;;;;;;;4.00;100.00;94338.47;5030174;28;24451;-74
2021/11/04 04:24:25;;;;;;;0.50;0.45;;;;;;;4.00;100.00;94343.59;5030295;28;24423;-74
2021/11/04 04:26:53;;;;;;;0.50;0.50;;;;;;;4.02;100.00;94341.78;5030474;28;24447;-74
2021/11/04 04:29:20;;;;;;;0.40;0.40;;;;;;;3.93;100.00;94347.44;5030454;28;24423;-74
2021/11/04 04:31:48;;;;;;;0.75;0.50;;;;;;;3.94;100.00;94349.09;5029911;28;22382;-74
2021/11/04 04:34:14;;;;;;;1.40;0.70;;;;;;;3.92;100.00;94345.81;5030544;28;24774;-74
2021/11/04 04:36:41;;;;;;;0.85;0.68;;;;;;;3.94;100.00;94342.25;5030181;28;24953;-74
2021/11/04 04:39:08;;;;;;;1.10;0.70;;;;;;;3.88;100.00;94358.78;5030545;28;24945;-74
2021/11/04 04:41:34;;;;;;;1.17;0.63;;;;;;;3.91;100.00;94357.78;5030350;28;24989;-74
2021/11/04 04:44:02;;;;;;;1.50;0.60;;;;;;;3.99;100.00;94353.03;5030676;28;24419;-74
2021/11/04 04:46:29;;;;;;;0.83;0.63;;;;;;;3.95;100.00;94351.56;5029781;28;24471;-74
2021/11/04 04:48:55;;;;;;;0.40;0.40;;;;;;;3.96;100.00;94360.06;5030187;28;24431;-74
2021/11/04 04:51:22;;;;;;;0.70;0.60;;;;;;;3.96;100.00;94366.00;5030188;28;24961;-74
2021/11/04 04:53:48;;;;;;;0.85;0.60;;;;;;;4.00;100.00;94362.34;5030345;28;24442;-74
2021/11/04 04:56:15;;;;;;;0.47;0.40;;;;;;;3.98;100.00;94361.63;5029844;28;24428;-74
2021/11/04 04:58:42;;;;;;;0.47;0.40;;;;;;;3.90;100.00;94373.25;5030117;28;24416;-74
2021/11/04 05:01:09;;;;;;;0.80;0.38;;;;;;;3.95;100.00;94372.06;5029993;28;24455;-74
2021/11/04 05:03:36;;;;;;;0.40;0.40;;;;;;;4.04;100.00;94380.94;5029930;28;24420;-74
2021/11/04 05:06:03;;;;;;;0.75;0.68;;;;;;;3.97;100.00;94375.38;5029988;28;24494;-74
2021/11/04 05:08:29;;;;;;;2.30;1.00;;;;;;;3.89;100.00;94374.97;5029942;28;24976;-74
2021/11/04 05:10:56;;;;;;;4.63;1.77;;;;;;;3.92;100.00;94385.03;5029955;28;25031;-74
2021/11/04 05:13:22;;;;;;;3.30;1.20;;;;;;;3.99;100.00;94382.94;5029788;28;24981;-74
2021/11/04 05:15:49;;;;;;;1.90;1.40;;;;;;;4.02;100.00;94391.28;5029649;28;24793;-74
2021/11/04 05:18:17;;;;;;;1.60;1.50;;;;;;;3.96;100.00;94394.19;5029675;28;24428;-74
2021/11/04 05:20:43;;;;;;;1.20;0.85;;;;;;;3.92;100.00;94395.28;5029660;28;24954;-74
2021/11/04 05:23:10;;;;;;;0.50;0.45;;;;;;;3.86;100.00;94401.63;5033849;28;24435;-75
2021/11/04 05:25:36;;;;;;;1.00;0.60;;;;;;;3.82;100.00;94401.84;5033561;28;24820;-75
2021/11/04 05:28:03;;;;;;;1.25;0.60;;;;;;;3.70;100.00;94403.41;5033534;28;24439;-74
2021/11/04 05:30:30;;;;;;;0.60;0.47;;;;;;;3.66;100.00;94399.38;5033516;28;24986;-75
2021/11/04 05:32:57;;;;;;;0.77;0.40;;;;;;;3.68;100.00;94402.69;5033489;28;24423;-75
2021/11/04 05:35:25;;;;;;;0.45;0.45;;;;;;;3.69;100.00;94400.94;5033275;28;24481;-75
2021/11/04 05:37:51;;;;;;;1.85;0.95;;;;;;;3.66;100.00;94403.66;5033498;28;24419;-75
2021/11/04 05:40:18;;;;;;;0.55;0.43;;;;;;;3.63;100.00;94404.66;5033775;28;24798;-75
2021/11/04 05:42:44;;;;;;;0.65;0.60;;;;;;;3.70;100.00;94420.50;5033316;28;24444;-75
2021/11/04 05:45:11;;;;;;;0.50;0.50;;;;;;;3.72;100.00;94421.25;5032812;28;24953;-75
2021/11/04 05:47:37;;;;;;;0.47;0.40;;;;;;;3.71;100.00;94427.25;5033331;28;24481;-74
2021/11/04 05:50:05;;;;;;;0.60;0.40;;;;;;;3.77;100.00;94429.47;5033199;28;24412;-74
2021/11/04 05:52:33;;;;;;;1.00;0.73;;;;;;;3.76;100.00;94432.97;5033310;28;24427;-76
2021/11/04 05:55:00;;;;;;;0.70;0.50;;;;;;;3.73;100.00;94428.84;5032938;28;24539;-77
2021/11/04 05:57:27;;;;;;;0.52;0.30;;;;;;;3.66;100.00;94416.47;5033089;28;24493;-76
2021/11/04 05:59:54;;;;;;;0.85;0.60;;;;;;;3.80;100.00;94419.88;5032860;28;24944;-77
2021/11/04 06:02:21;;;;;;;1.33;1.20;;;;;;;3.91;100.00;94426.13;5022295;28;24452;-76
2021/11/04 06:04:47;;;;;;;1.47;1.37;;;;;;;3.94;100.00;94426.78;5023384;28;24605;-75
2021/11/04 06:07:15;;;;;;;4.22;1.80;;;;;;;4.00;100.00;94440.94;5032879;28;24420;-76
2021/11/04 06:09:43;;;;;;;0.90;0.80;;;;;;;3.91;100.00;94441.50;5032818;28;24423;-75
2021/11/04 06:12:10;;;;;;;1.10;0.50;;;;;;;3.86;100.00;94444.34;5025632;28;25020;-76
2021/11/04 06:14:38;;;;;;;0.45;0.43;;;;;;;3.81;100.00;94448.88;5024095;28;24984;-75
2021/11/04 06:17:05;;;;;;;0.57;0.50;;;;;;;3.90;100.00;94448.34;5032673;28;24785;-76
2021/11/04 06:19:32;;;;;;;0.40;0.40;;;;;;;3.95;100.00;94459.16;5032801;28;24416;-76
2021/11/04 06:21:58;;;;;;;1.20;0.50;;;;;;;4.01;100.00;94463.13;5032641;28;24455;-75
2021/11/04 06:24:25;;;;;;;0.80;0.80;;;;;;;4.05;100.00;94470.53;5032432;28;24422;-76
2021/11/04 06:26:53;;;;;;;1.55;1.08;;;;;;;4.04;100.00;94475.72;5032224;28;24426;-76
2021/11/04 06:29:19;;;;;;;2.80;1.10;;;;;;;4.06;100.00;94474.72;5032422;28;24424;-76
2021/11/04 06:31:46;;;;;;;3.67;1.80;;;;;;;3.84;100.00;94484.56;5032542;28;24427;-75
2021/11/04 06:34:12;;;;;;;2.60;1.23;;;;;;;3.77;100.00;94485.81;5031548;28;25019;-76
2021/11/04 06:36:39;;;;;;;2.20;1.00;;;;;;;3.84;100.00;94489.69;5032135;28;24424;-76
2021/11/04 06:39:05;;;;;;;3.17;2.10;;;;;;;3.94;100.00;94484.88;5025608;28;24436;-75
2021/11/04 06:41:32;;;;;;;3.10;2.20;;;;;;;3.94;100.00;94495.94;5028677;28;24447;-75
2021/11/04 06:44:00;;;;;;;2.33;1.85;;;;;;;3.93;100.00;94494.28;5032144;28;24416;-76
2021/11/04 06:46:27;;;;;;;2.45;1.58;;;;;;;4.01;100.00;94493.84;5031777;28;24423;-76
2021/11/04 06:49:00;;;;;;;1.52;0.98;;;;;;;3.97;100.00;94500.03;5032232;28;24427;-75
2021/11/04 06:51:30;;;;;;;1.33;0.65;;;;;;;3.72;100.00;94498.06;5032245;28;24449;-74
2021/11/04 06:53:58;;;;;;;0.80;0.80;;;;;;;3.80;100.00;94498.44;5032373;28;24420;-74
2021/11/04 06:56:25;;;;;;;1.10;0.93;;;;;;;3.84;100.00;94500.75;5022070;28;24489;-74
2021/11/04 06:58:53;;;;;;;2.53;1.13;;;;;;;3.86;100.00;94510.91;5021858;28;24519;-75
2021/11/04 07:01:23;;;;;;;1.33;1.13;;;;;;;3.95;100.00;94515.50;5022991;28;24522;-75
2021/11/04 07:03:57;;;;;;;2.35;1.10;;;;;;;3.99;100.00;94524.66;5023847;28;24428;-75
2021/11/04 07:06:26;;;;;;;1.67;1.08;;;;;;;4.11;100.00;94528.25;5022301;28;24463;-68
2021/11/04 07:08:57;;;;;;;1.60;1.50;;;;;;;4.12;100.00;94535.06;5008815;28;24437;-76
2021/11/04 07:11:25;;;;;;;1.48;1.10;;;;;;;3.97;100.00;94539.31;5002316;28;24433;-77
2021/11/04 07:13:53;;;;;;;1.23;1.02;;;;;;;4.10;100.00;94542.81;5023423;28;24493;-75
2021/11/04 07:16:23;;;;;;;1.27;1.10;;;;;;;4.19;100.00;94540.63;5011945;28;24437;-75
2021/11/04 07:18:51;;;;;;;1.33;0.90;;;;;;;4.16;100.00;94546.78;5012374;28;24503;-76
2021/11/04 07:21:22;;;;;;;0.80;0.80;;;;;;;4.13;100.00;94546.94;5011955;28;24428;-76
2021/11/04 07:23:53;;;;;;;1.58;1.45;;;;;;;4.09;100.00;94555.72;5012209;28;24432;-75
2021/11/04 07:26:21;;;;;;;3.42;2.75;;;;;;;4.19;100.00;94556.00;5011662;28;25035;-75
2021/11/04 07:28:53;;;;;;;7.93;4.90;;;;;;;4.08;100.00;94564.31;5012080;28;24421;-76
2021/11/04 07:31:22;;;;;;;5.28;4.43;;;;;;;4.03;100.00;94567.13;5012038;28;24425;-76
2021/11/04 07:33:50;;;;;;;6.20;4.63;;;;;;;4.03;100.00;94574.00;5011941;28;24428;-76
2021/11/04 07:36:17;;;;;;;5.22;3.80;;;;;;;3.97;100.00;94571.75;5011747;28;24527;-76
2021/11/04 07:38:45;;;;;;;4.30;3.15;;;;;;;3.96;100.00;94576.06;5017704;28;24495;-76
2021/11/04 07:41:12;;;;;;;3.45;2.35;;;;;;;4.04;100.00;94579.06;4992540;28;24483;-74
2021/11/04 07:43:39;;;;;;;1.50;1.40;;;;;;;4.01;100.00;94580.97;4992108;28;24441;-74
2021/11/04 07:46:05;;;;;;;2.10;1.60;;;;;;;4.03;100.00;94585.06;4990597;28;24659;-74
2021/11/04 07:48:33;;;;;;;1.60;1.50;;;;;;;3.98;100.00;94589.63;5058037;23;24464;-75
2021/11/04 07:51:00;;;;;;;1.15;1.05;;;;;;;4.09;100.00;94594.16;5023182;28;24507;-73
2021/11/04 07:53:26;;;;;;;1.27;1.00;;;;;;;4.09;100.00;94594.97;5031415;28;24415;-73
2021/11/04 07:55:54;;;;;;;1.27;1.08;;;;;;;4.07;100.00;94594.22;5030973;28;24426;-72
2021/11/04 07:58:21;;;;;;;1.40;1.25;;;;;;;4.09;100.00;94602.66;5031041;28;24514;-73
2021/11/04 08:00:48;;;;;;;1.40;1.30;;;;;;;4.08;100.00;94611.28;5030937;28;24424;-72
2021/11/04 08:03:15;;;;;;;2.42;2.10;;;;;;;3.92;100.00;94613.00;5031686;28;24456;-72
2021/11/04 08:05:43;;;;;;;2.10;1.50;;;;;;;3.98;100.00;94612.69;5031236;28;24789;-73
2021/11/04 08:08:09;;;;;;;1.50;1.20;;;;;;;3.97;100.00;94618.72;5031301;28;24428;-73
2021/11/04 08:10:36;;;;;;;2.35;1.30;;;;;;;4.07;100.00;94624.16;5014149;28;24437;-73
2021/11/04 08:13:08;;;;;;;1.30;1.20;;;;;;;4.07;100.00;94613.91;5011582;28;24428;-73
2021/11/04 08:15:35;;;;;;;2.40;1.13;;;;;;;4.18;100.00;94624.38;5031281;28;24524;-73
2021/11/04 08:18:01;;;;;;;2.20;1.30;;;;;;;4.23;100.00;94624.13;5031549;28;24434;-73
2021/11/04 08:20:29;;;;;;;1.40;1.30;;;;;;;4.16;100.00;94625.41;5031295;28;24946;-73
2021/11/04 08:22:57;;;;;;;1.30;1.20;;;;;;;4.01;100.00;94632.19;5031138;28;24471;-73
2021/11/04 08:25:24;;;;;;;2.03;1.30;;;;;;;4.02;100.00;94631.28;5033645;28;24538;-73
2021/11/04 08:27:50;;;;;;;2.00;1.20;;;;;;;4.17;100.00;94642.41;5050828;28;24426;-73
2021/11/04 08:30:17;;;;;;;1.50;1.07;;;;;;;4.24;100.00;94641.97;5051454;28;24891;-73
2021/11/04 08:32:44;;;;;;;0.90;0.88;;;;;;;4.30;100.00;94635.66;5051344;28;24415;-73
2021/11/04 08:35:11;;;;;;;1.80;1.30;;;;;;;4.26;100.00;94642.69;5050714;28;24464;-73
2021/11/04 08:37:38;;;;;;;2.97;1.20;;;;;;;4.27;100.00;94651.25;5051028;28;24474;-73
2021/11/04 08:40:08;;;;;;;4.45;1.15;;;;;;;4.25;100.00;94655.63;5038152;28;24440;-73
2021/11/04 08:42:35;;;;;;;0.80;0.70;;;;;;;4.22;100.00;94663.47;5031456;28;24440;-73
2021/11/04 08:45:01;;;;;;;0.88;0.80;;;;;;;4.24;100.00;94662.47;5030554;28;24794;-73
2021/11/04 08:47:28;;;;;;;1.52;0.90;;;;;;;4.32;100.00;94659.50;5030721;28;24995;-73
2021/11/04 08:49:55;;;;;;;1.20;0.90;;;;;;;4.38;100.00;94663.47;5031025;28;24436;-73
2021/11/04 08:52:23;;;;;;;1.40;1.00;;;;;;;4.39;100.00;94675.34;5030977;28;24430;-73
2021/11/04 08:54:50;;;;;;;1.55;1.20;;;;;;;4.32;100.00;94672.31;5030149;28;24965;-73
2021/11/04 08:57:19;;;;;;;2.13;1.10;;;;;;;4.36;100.00;94666.91;5033621;28;24424;-73
2021/11/04 08:59:46;;;;;;;1.05;0.95;;;;;;;4.29;100.00;94680.16;5034840;28;24967;-73
2021/11/04 09:02:14;;;;;;;1.02;0.70;;;;;;;4.21;100.00;94682.31;5035026;28;24452;-72
2021/11/04 09:04:42;;;;;;;1.70;0.90;;;;;;;4.17;100.00;94683.41;5034503;28;24965;-73
2021/11/04 09:07:09;;;;;;;1.65;0.90;;;;;;;4.18;100.00;94692.75;5034770;28;24443;-74
2021/11/04 09:09:36;;;;;;;0.98;0.80;;;;;;;4.25;100.00;94681.25;5034200;28;24431;-73
2021/11/04 09:12:03;;;;;;;0.77;0.60;;;;;;;4.29;100.00;94696.38;5035003;28;24428;-73
2021/11/04 09:14:31;;;;;;;1.00;0.75;;;;;;;4.28;100.00;94697.28;5034574;28;24420;-72
2021/11/04 09:16:57;;;;;;;0.88;0.70;;;;;;;4.29;100.00;94705.78;5034616;28;24458;-71
2021/11/04 09:19:24;;;;;;;0.75;0.55;;;;;;;4.25;100.00;94706.88;5034554;28;24427;-72
2021/11/04 09:21:50;;;;;;;0.40;0.40;;;;;;;4.34;100.00;94714.91;5034481;28;24436;-72
2021/11/04 09:24:17;;;;;;;0.40;0.32;;;;;;;4.22;100.00;94707.03;5034645;28;24452;-73
2021/11/04 09:26:44;;;;;;;0.90;0.40;;;;;;;4.20;100.00;94719.13;5034279;28;24459;-72
2021/11/04 09:29:10;;;;;;;0.57;0.40;;;;;;;4.11;100.00;94720.44;5034345;28;24424;-72
2021/11/04 09:31:38;;;;;;;0.68;0.40;;;;;;;4.21;100.00;94725.91;5034453;28;24423;-72
2021/11/04 09:34:05;;;;;;;1.00;0.40;;;;;;;4.18;100.00;94731.19;5034410;28;24446;-72
2021/11/04 09:36:33;;;;;;;0.22;0.20;;;;;;;4.14;100.00;94743.34;5033819;28;24423;-72
2021/11/04 09:39:02;;;;;;;0.77;0.60;;;;;;;4.12;100.00;94743.44;5034101;28;24490;-72
2021/11/04 09:41:29;;;;;;;0.40;0.40;;;;;;;4.15;100.00;94746.72;5034026;28;24432;-73
2021/11/04 09:43:57;;;;;;;0.65;0.50;;;;;;;3.95;100.00;94747.78;5034329;28;25155;-72
2021/11/04 09:46:23;;;;;;;0.88;0.47;;;;;;;4.00;100.00;94751.75;5033825;28;24531;-72
2021/11/04 09:48:51;;;;;;;0.82;0.65;;;;;;;4.11;100.00;94766.56;5033771;28;24428;-73
2021/11/04 09:51:19;;;;;;;0.43;0.43;;;;;;;4.22;100.00;94771.94;5033817;28;24447;-72
2021/11/04 09:53:47;;;;;;;0.50;0.40;;;;;;;4.35;100.00;94764.41;5033615;28;24952;-73
2021/11/04 09:56:15;;;;;;;0.50;0.50;;;;;;;4.34;100.00;94776.41;5033448;28;24416;-73
2021/11/04 09:58:42;;;;;;;1.80;0.57;;;;;;;4.43;100.00;94769.13;5033191;28;24439;-73
2021/11/04 10:01:16;;;;;;;0.60;0.40;;;;;;;4.47;100.00;94784.25;5033276;28;24416;-72
2021/11/04 10:03:44;;;;;;;1.20;0.57;;;;;;;4.47;100.00;94796.25;5032944;28;24551;-73
2021/11/04 10:06:20;;;;;;;0.63;0.50;;;;;;;4.52;100.00;94789.13;5033241;28;24412;-73
2021/11/04 10:08:53;;;;;;;1.05;0.60;;;;;;;4.50;100.00;94793.53;5032087;28;24434;-73
2021/11/04 10:11:21;;;;;;;0.40;0.40;;;;;;;4.59;100.00;94793.84;5033499;28;24973;-72
2021/11/04 10:13:49;;;;;;;0.47;0.38;;;;;;;4.51;100.00;94802.88;5033514;28;24794;-73
2021/11/04 10:16:18;;;;;;;1.05;0.70;;;;;;;4.66;100.00;94796.06;5033162;28;24797;-73
2021/11/04 10:18:48;;;;;;;0.57;0.57;;;;;;;4.58;100.00;94805.00;5032956;28;25026;-74
2021/11/04 10:21:15;;;;;;;0.90;0.60;;;;;;;4.57;100.00;94807.66;5033658;28;24969;-73
2021/11/04 10:23:44;;;;;;;1.10;0.75;;;;;;;4.59;100.00;94810.97;5033124;28;24813;-73
2021/11/04 10:26:13;;;;;;;1.35;0.90;;;;;;;4.66;100.00;94803.75;5032919;28;24458;-73
2021/11/04 10:28:43;;;;;;;1.25;1.10;;;;;;;4.52;100.00;94820.72;5032798;28;25015;-73
2021/11/04 10:31:11;;;;;;;1.05;0.95;;;;;;;4.60;100.00;94823.72;5032839;28;24431;-77
2021/11/04 10:33:39;;;;;;;2.20;1.20;;;;;;;4.45;100.00;94828.81;5032870;28;24451;-74
2021/11/04 10:36:08;;;;;;;1.92;1.70;;;;;;;4.48;100.00;94828.66;5032318;28;24865;-73
2021/11/04 10:38:40;;;;;;;1.80;1.70;;;;;;;4.47;100.00;94827.03;5032206;28;24423;-73
2021/11/04 10:41:10;;;;;;;2.00;1.70;;;;;;;4.49;100.00;94833.72;5032410;28;24431;-74
2021/11/04 10:43:38;;;;;;;2.17;1.90;;;;;;;4.46;100.00;94833.06;5032660;28;24440;-74
2021/11/04 10:46:07;;;;;;;2.55;1.95;;;;;;;4.47;100.00;94835.53;5032452;28;24499;-74
2021/11/04 10:48:38;;;;;;;3.50;2.05;;;;;;;4.29;100.00;94844.19;5032139;28;24442;-73
2021/11/04 10:51:05;;;;;;;2.75;2.50;;;;;;;4.31;100.00;94847.53;5032268;28;24424;-74
2021/11/04 10:53:31;;;;;;;3.37;3.07;;;;;;;4.31;100.00;94850.09;5032150;28;24953;-74
2021/11/04 10:56:17;;;;;;;3.22;2.65;;;;;;;4.28;100.00;94853.63;5031754;28;24431;-73
2021/11/04 10:58:51;;;;;;;2.95;2.65;;;;;;;4.17;100.00;94860.22;5032171;28;24507;-74
2021/11/04 11:01:25;;;;;;;3.60;3.28;;;;;;;4.13;100.00;94862.13;5032057;28;24447;-74
2021/11/04 11:03:54;;;;;;;3.67;3.38;;;;;;;4.22;100.00;94871.06;5031830;28;24439;-74
2021/11/04 11:06:21;;;;;;;3.67;3.25;;;;;;;4.25;100.00;94873.47;5031359;28;24949;-74
2021/11/04 11:08:48;;;;;;;4.50;3.45;;;;;;;4.32;100.00;94872.25;5031411;28;24964;-74
2021/11/04 11:11:18;;;;;;;4.23;3.63;;;;;;;4.43;100.00;94871.69;5032005;28;24517;-73
2021/11/04 11:13:46;;;;;;;3.90;3.60;;;;;;;4.41;100.00;94876.03;5031948;28;24470;-73
2021/11/04 11:16:15;;;;;;;3.60;3.30;;;;;;;4.38;100.00;94881.38;5031483;28;24450;-74
2021/11/04 11:18:41;;;;;;;3.72;3.33;;;;;;;4.42;100.00;94886.25;5031299;28;24415;-74
2021/11/04 11:21:09;;;;;;;4.65;4.25;;;;;;;4.34;100.00;94888.38;5031927;28;24419;-74
2021/11/04 11:23:37;;;;;;;4.40;4.00;;;;;;;4.33;100.00;94894.41;5031645;28;24811;-73
2021/11/04 11:26:05;;;;;;;3.93;3.47;;;;;;;4.26;100.00;94901.56;5031309;28;25040;-74
2021/11/04 11:28:35;;;;;;;4.43;3.95;;;;;;;4.48;100.00;94910.72;5031459;28;24460;-73
2021/11/04 11:31:24;;;;;;;4.40;4.00;;;;;;;4.40;100.00;94907.72;5031357;28;24527;-73
2021/11/04 11:34:24;;;;;;;4.88;3.92;;;;;;;4.52;100.00;94904.50;5031619;28;24426;-73
2021/11/04 11:37:17;;;;;;;4.57;4.00;;;;;;;4.38;100.00;94912.13;5031278;28;24452;-73